Time;durP1;ratioP1;P1;durP2;ratioP2;P2;SDS_P1;SDS_P2;PMS_P1;PMS_P2;Temp;Humidity;BMP_temperature;BMP_pressure;BME280_temperature;BME280_humidity;BME280_pressure;Samples;Min_cycle;Max_cycle;Signal;HPM_P1;HPM_P2
2023/06/29 00:02:24;;;;;;;40.60;25.98;;;18.50;99.90;;;;;;5044890;28;20433;-73
2023/06/29 00:04:56;;;;;;;41.65;26.27;;;18.60;99.90;;;;;;5043876;28;20475;-73
2023/06/29 00:07:24;;;;;;;39.47;26.98;;;18.50;99.90;;;;;;5042298;28;20048;-72
2023/06/29 00:09:52;;;;;;;39.25;26.33;;;18.50;99.90;;;;;;5045047;28;20025;-72
2023/06/29 00:12:17;;;;;;;43.92;28.27;;;18.50;99.90;;;;;;5045199;28;20025;-72
2023/06/29 00:14:43;;;;;;;41.80;27.08;;;18.50;99.90;;;;;;5044661;28;20032;-72
2023/06/29 00:17:09;;;;;;;39.92;26.00;;;18.40;99.90;;;;;;5045156;28;20029;-74
2023/06/29 00:19:35;;;;;;;46.15;28.08;;;18.50;99.90;;;;;;5027486;28;20030;-72
2023/06/29 00:22:01;;;;;;;43.58;28.25;;;18.50;99.90;;;;;;5045043;28;20022;-72
2023/06/29 00:24:28;;;;;;;46.47;26.58;;;18.50;99.90;;;;;;5044784;28;20075;-72
2023/06/29 00:26:54;;;;;;;39.95;26.45;;;18.50;99.90;;;;;;5044475;28;20029;-72
2023/06/29 00:29:20;;;;;;;42.53;28.27;;;18.50;99.90;;;;;;5044560;28;20033;-72
2023/06/29 00:31:45;;;;;;;44.60;28.02;;;18.50;99.90;;;;;;5044771;28;20049;-72
2023/06/29 00:34:11;;;;;;;44.47;27.42;;;18.50;99.90;;;;;;5044746;28;20030;-71
2023/06/29 00:36:36;;;;;;;44.45;27.48;;;18.50;99.90;;;;;;5044508;28;20021;-73
2023/06/29 00:39:03;;;;;;;46.40;29.75;;;18.50;99.90;;;;;;5044920;28;20045;-73
2023/06/29 00:41:28;;;;;;;41.63;28.23;;;18.50;99.90;;;;;;5044841;28;20033;-72
2023/06/29 00:43:55;;;;;;;43.60;29.20;;;18.50;99.90;;;;;;5044233;28;20041;-72
2023/06/29 00:46:21;;;;;;;49.17;29.77;;;18.40;99.90;;;;;;5026943;28;20026;-73
2023/06/29 00:48:47;;;;;;;46.92;29.65;;;18.40;99.90;;;;;;5026852;28;20052;-72
2023/06/29 00:51:14;;;;;;;46.65;29.95;;;18.40;99.90;;;;;;5044267;28;20083;-71
2023/06/29 00:53:40;;;;;;;45.00;28.92;;;18.40;99.90;;;;;;5044567;28;20072;-73
2023/06/29 00:56:06;;;;;;;42.55;26.98;;;18.40;99.90;;;;;;5044240;28;20091;-73
2023/06/29 00:58:32;;;;;;;47.22;27.67;;;18.30;99.90;;;;;;5039304;28;20029;-73
2023/06/29 01:00:57;;;;;;;45.45;28.83;;;18.30;99.90;;;;;;5044510;28;20087;-72
2023/06/29 01:03:23;;;;;;;48.67;30.10;;;18.30;99.90;;;;;;5042837;28;20779;-72
2023/06/29 01:05:55;;;;;;;49.45;30.15;;;18.30;99.90;;;;;;5044135;28;20148;-72
2023/06/29 01:08:28;;;;;;;45.95;28.80;;;18.30;99.90;;;;;;5044403;28;20025;-72
2023/06/29 01:10:55;;;;;;;46.85;29.40;;;18.30;99.90;;;;;;5044124;28;20036;-72
2023/06/29 01:13:22;;;;;;;45.92;29.20;;;18.30;99.90;;;;;;5048883;28;20024;-73
2023/06/29 01:15:50;;;;;;;46.53;29.70;;;18.30;99.90;;;;;;5037681;28;20033;-72
2023/06/29 01:18:17;;;;;;;48.45;31.08;;;18.40;99.90;;;;;;5032655;28;20040;-72
2023/06/29 01:20:44;;;;;;;51.17;30.45;;;18.30;99.90;;;;;;5050942;28;20071;-72
2023/06/29 01:23:20;;;;;;;46.67;29.67;;;18.30;99.90;;;;;;5051027;28;20025;-73
2023/06/29 01:25:46;;;;;;;50.40;31.45;;;18.30;99.90;;;;;;5050357;28;20037;-71
2023/06/29 01:28:12;;;;;;;51.97;30.98;;;18.20;99.90;;;;;;5050894;28;20423;-72
2023/06/29 01:30:48;;;;;;;51.72;30.90;;;18.30;99.90;;;;;;5049881;28;20044;-73
2023/06/29 01:33:15;;;;;;;50.17;30.15;;;18.20;99.90;;;;;;5050594;28;20052;-71
2023/06/29 01:35:41;;;;;;;49.65;29.40;;;18.20;99.90;;;;;;5049521;28;20116;-71
2023/06/29 01:38:14;;;;;;;56.15;31.67;;;18.20;99.90;;;;;;5050842;28;20026;-73
2023/06/29 01:40:44;;;;;;;49.35;30.65;;;18.20;99.90;;;;;;5050665;28;20041;-73
2023/06/29 01:43:09;;;;;;;51.30;31.83;;;18.20;99.90;;;;;;5050656;28;20044;-74
2023/06/29 01:45:36;;;;;;;49.20;30.92;;;18.20;99.90;;;;;;5032646;28;20068;-72
2023/06/29 01:48:03;;;;;;;53.75;31.17;;;18.20;99.90;;;;;;5032973;28;20022;-72
2023/06/29 01:50:30;;;;;;;48.67;30.58;;;18.20;99.90;;;;;;5050855;28;20045;-72
2023/06/29 01:52:55;;;;;;;47.17;29.83;;;18.20;99.90;;;;;;5036542;28;20411;-72
2023/06/29 01:55:21;;;;;;;49.42;29.10;;;18.20;99.90;;;;;;5049101;28;20389;-72
2023/06/29 01:57:47;;;;;;;50.55;30.13;;;18.10;99.90;;;;;;5050565;28;20033;-72
2023/06/29 02:00:13;;;;;;;49.38;28.38;;;18.10;99.90;;;;;;5050318;28;20030;-72
2023/06/29 02:02:39;;;;;;;49.78;30.35;;;18.10;99.90;;;;;;5050410;28;20032;-72
2023/06/29 02:05:05;;;;;;;49.63;30.35;;;18.10;99.90;;;;;;5050617;28;20037;-75
2023/06/29 02:07:30;;;;;;;47.45;29.45;;;18.10;99.90;;;;;;5050398;28;20057;-71
2023/06/29 02:09:56;;;;;;;48.75;29.27;;;18.10;99.90;;;;;;5050458;28;20038;-73
2023/06/29 02:12:22;;;;;;;45.85;28.90;;;18.10;99.90;;;;;;5050361;28;20059;-72
2023/06/29 02:14:47;;;;;;;49.60;29.50;;;18.10;99.90;;;;;;5032257;28;20037;-72
2023/06/29 02:17:13;;;;;;;47.88;29.73;;;18.10;99.90;;;;;;5050240;28;20025;-73
2023/06/29 02:19:38;;;;;;;49.30;29.75;;;18.10;99.90;;;;;;5050319;28;20037;-71
2023/06/29 02:22:04;;;;;;;49.60;29.98;;;18.10;99.90;;;;;;5049145;28;20047;-72
2023/06/29 02:24:30;;;;;;;54.00;30.85;;;18.00;99.90;;;;;;5030154;28;20049;-72
2023/06/29 02:26:56;;;;;;;53.08;30.55;;;18.00;99.90;;;;;;5046705;28;20032;-71
2023/06/29 02:29:21;;;;;;;50.97;31.38;;;18.00;99.90;;;;;;5046924;28;20021;-72
2023/06/29 02:31:47;;;;;;;51.08;30.77;;;18.00;99.90;;;;;;5046488;28;20033;-72
2023/06/29 02:34:13;;;;;;;53.33;30.50;;;18.00;99.90;;;;;;5046787;28;20037;-72
2023/06/29 02:36:39;;;;;;;50.13;30.55;;;18.00;99.90;;;;;;5046768;28;20025;-72
2023/06/29 02:39:04;;;;;;;56.65;31.25;;;18.00;99.90;;;;;;5047036;28;20046;-73
2023/06/29 02:41:30;;;;;;;51.25;31.58;;;18.00;99.90;;;;;;5047075;28;20040;-72
2023/06/29 02:43:55;;;;;;;44.40;27.17;;;17.90;99.90;;;;;;5028555;28;20549;-72
2023/06/29 02:46:21;;;;;;;55.28;30.60;;;17.90;99.90;;;;;;5029072;28;20025;-72
2023/06/29 02:48:47;;;;;;;48.90;29.50;;;18.00;99.90;;;;;;5046514;28;20026;-72
2023/06/29 02:51:12;;;;;;;53.33;30.02;;;18.00;99.90;;;;;;5046418;28;20030;-74
2023/06/29 02:53:38;;;;;;;45.80;28.48;;;18.00;99.90;;;;;;5046751;28;20034;-71
2023/06/29 02:56:04;;;;;;;47.22;28.08;;;18.00;99.90;;;;;;5028754;28;20462;-74
2023/06/29 02:58:29;;;;;;;45.30;26.42;;;18.00;99.90;;;;;;5046814;28;20017;-71
2023/06/29 03:00:55;;;;;;;46.78;27.48;;;17.90;99.90;;;;;;5046655;28;20038;-74
2023/06/29 03:03:20;;;;;;;46.03;26.25;;;18.00;99.90;;;;;;5046139;28;20056;-73
2023/06/29 03:05:46;;;;;;;52.22;27.75;;;17.90;99.90;;;;;;5046144;28;20033;-72
2023/06/29 03:08:11;;;;;;;47.55;25.35;;;17.90;99.90;;;;;;5028621;28;20454;-71
2023/06/29 03:10:37;;;;;;;50.20;26.30;;;17.90;99.90;;;;;;5046133;28;20025;-73
2023/06/29 03:13:03;;;;;;;48.50;27.83;;;17.80;99.90;;;;;;5046806;28;20109;-72
2023/06/29 03:15:28;;;;;;;43.25;25.20;;;17.90;99.90;;;;;;5046513;28;20029;-72
2023/06/29 03:17:54;;;;;;;46.22;26.45;;;17.90;99.90;;;;;;5027696;28;20036;-72
2023/06/29 03:20:19;;;;;;;41.75;24.55;;;17.90;99.90;;;;;;5046064;28;20034;-72
2023/06/29 03:22:45;;;;;;;43.50;23.95;;;17.90;99.90;;;;;;5028249;28;20068;-71
2023/06/29 03:25:10;;;;;;;37.85;23.48;;;17.90;99.90;;;;;;5045763;28;20045;-72
2023/06/29 03:27:37;;;;;;;38.65;24.10;;;17.90;99.90;;;;;;5046540;28;20529;-72
2023/06/29 03:30:03;;;;;;;41.35;23.83;;;17.90;99.90;;;;;;5027282;28;20101;-73
2023/06/29 03:32:28;;;;;;;42.38;24.10;;;17.90;99.90;;;;;;5037602;28;20026;-73
2023/06/29 03:34:54;;;;;;;43.38;24.13;;;18.00;99.90;;;;;;5043188;28;20060;-75
2023/06/29 03:37:19;;;;;;;39.38;23.95;;;17.90;99.90;;;;;;5028341;28;20417;-72
2023/06/29 03:39:45;;;;;;;41.92;23.48;;;17.90;99.90;;;;;;5045335;28;20060;-71
2023/06/29 03:42:10;;;;;;;44.47;24.63;;;18.00;99.90;;;;;;5046097;28;20482;-72
2023/06/29 03:44:39;;;;;;;36.10;22.05;;;17.90;99.90;;;;;;5045705;28;20064;-72
2023/06/29 03:47:05;;;;;;;39.22;23.98;;;18.00;99.90;;;;;;5028040;28;20051;-73
2023/06/29 03:49:30;;;;;;;47.08;23.92;;;18.00;99.90;;;;;;5028212;28;20025;-72
2023/06/29 03:51:56;;;;;;;35.67;23.05;;;18.00;99.90;;;;;;5045255;28;20108;-72
2023/06/29 03:54:21;;;;;;;44.17;22.75;;;18.00;99.90;;;;;;5045696;28;20050;-72
2023/06/29 03:56:47;;;;;;;37.85;23.45;;;18.00;99.90;;;;;;5045608;28;20060;-72
2023/06/29 03:59:13;;;;;;;39.75;23.40;;;18.00;99.90;;;;;;5045142;28;20029;-72
2023/06/29 04:01:38;;;;;;;38.30;23.35;;;18.00;99.90;;;;;;5044757;28;20529;-72
2023/06/29 04:04:04;;;;;;;38.72;22.17;;;18.00;99.90;;;;;;5045226;28;20040;-73
2023/06/29 04:06:29;;;;;;;41.42;22.58;;;18.00;99.90;;;;;;5045322;28;20032;-72
2023/06/29 04:08:55;;;;;;;37.42;21.67;;;18.00;99.90;;;;;;5045465;28;20036;-72
2023/06/29 04:11:20;;;;;;;36.97;21.67;;;17.90;99.90;;;;;;5045301;28;20033;-73
2023/06/29 04:13:46;;;;;;;40.08;22.65;;;17.90;99.90;;;;;;5026928;28;20021;-73
2023/06/29 04:16:12;;;;;;;45.95;22.58;;;18.10;99.90;;;;;;5045034;28;20381;-73
2023/06/29 04:18:37;;;;;;;45.85;23.88;;;18.00;99.90;;;;;;5044630;28;20037;-73
2023/06/29 04:21:03;;;;;;;41.95;22.80;;;18.10;99.90;;;;;;5042084;28;20036;-72
2023/06/29 04:23:29;;;;;;;48.53;23.02;;;18.10;99.90;;;;;;5045317;28;20025;-70
2023/06/29 04:25:54;;;;;;;37.83;22.30;;;18.10;99.90;;;;;;5025609;28;20041;-70
2023/06/29 04:28:20;;;;;;;41.92;21.88;;;18.10;99.90;;;;;;5043014;28;20021;-71
2023/06/29 04:30:45;;;;;;;45.65;22.60;;;18.10;99.90;;;;;;5037702;28;20030;-73
2023/06/29 04:33:11;;;;;;;41.42;22.50;;;18.10;99.90;;;;;;5041417;28;20801;-72
2023/06/29 04:35:41;;;;;;;37.38;22.35;;;18.10;99.90;;;;;;5024251;28;20394;-71
2023/06/29 04:38:10;;;;;;;38.17;22.80;;;18.10;99.90;;;;;;5044253;28;20037;-72
2023/06/29 04:40:37;;;;;;;37.63;22.00;;;18.10;99.90;;;;;;5044405;28;20133;-72
2023/06/29 04:43:03;;;;;;;36.78;21.83;;;18.10;99.90;;;;;;5026616;28;20040;-72
2023/06/29 04:45:31;;;;;;;37.08;22.15;;;18.10;99.90;;;;;;5036251;28;20030;-71
2023/06/29 04:47:58;;;;;;;37.80;21.88;;;18.20;99.90;;;;;;5036710;28;20026;-72
2023/06/29 04:50:26;;;;;;;37.40;21.65;;;18.20;99.90;;;;;;5027757;28;20017;-71
2023/06/29 04:52:55;;;;;;;39.30;21.42;;;18.10;99.90;;;;;;5043516;28;20034;-71
2023/06/29 04:55:22;;;;;;;40.55;23.65;;;18.20;99.90;;;;;;5025836;28;20386;-71
2023/06/29 04:57:48;;;;;;;43.88;22.27;;;18.20;99.90;;;;;;5025877;28;20470;-70
2023/06/29 05:00:14;;;;;;;36.97;21.98;;;18.20;99.90;;;;;;5029629;28;20043;-71
2023/06/29 05:02:40;;;;;;;38.92;21.85;;;18.20;99.90;;;;;;5042216;28;20053;-71
2023/06/29 05:05:07;;;;;;;36.65;20.50;;;18.20;99.90;;;;;;5023967;28;20033;-72
2023/06/29 05:07:34;;;;;;;39.85;21.95;;;18.30;99.90;;;;;;5025185;28;20089;-72
2023/06/29 05:10:00;;;;;;;40.53;22.25;;;18.30;99.90;;;;;;5025860;28;20032;-72
2023/06/29 05:12:26;;;;;;;41.20;22.58;;;18.30;99.90;;;;;;5043110;28;20045;-72
2023/06/29 05:14:51;;;;;;;36.92;22.00;;;18.40;99.90;;;;;;5036231;28;20029;-72
2023/06/29 05:17:19;;;;;;;37.22;21.27;;;18.40;99.90;;;;;;5044089;28;20034;-71
2023/06/29 05:19:45;;;;;;;42.53;22.70;;;18.40;99.90;;;;;;5034168;28;20093;-72
2023/06/29 05:22:11;;;;;;;36.15;20.55;;;18.40;99.90;;;;;;5044028;28;20025;-72
2023/06/29 05:24:37;;;;;;;37.03;22.15;;;18.40;99.90;;;;;;5044160;28;20053;-72
2023/06/29 05:27:04;;;;;;;41.72;22.33;;;18.50;99.90;;;;;;5026549;28;20064;-72
2023/06/29 05:29:29;;;;;;;42.72;21.95;;;18.50;99.90;;;;;;5041262;28;20033;-71
2023/06/29 05:31:55;;;;;;;37.95;23.35;;;18.50;99.90;;;;;;5025704;28;20505;-73
2023/06/29 05:34:21;;;;;;;38.70;22.08;;;18.50;99.90;;;;;;5042385;28;20115;-71
2023/06/29 05:36:46;;;;;;;41.55;22.52;;;18.60;99.90;;;;;;5024622;28;20029;-72
2023/06/29 05:39:12;;;;;;;42.03;21.58;;;18.60;99.90;;;;;;5026094;28;20475;-72
2023/06/29 05:41:38;;;;;;;39.75;22.00;;;18.60;99.90;;;;;;5026261;28;20089;-71
2023/06/29 05:44:06;;;;;;;37.83;20.65;;;18.60;99.90;;;;;;5025971;28;20076;-72
2023/06/29 05:46:33;;;;;;;35.95;20.77;;;18.60;99.90;;;;;;5044373;28;20056;-71
2023/06/29 05:48:59;;;;;;;37.17;22.02;;;18.60;99.90;;;;;;5044155;28;20382;-71
2023/06/29 05:51:25;;;;;;;39.38;21.67;;;18.70;99.90;;;;;;5025974;28;20115;-72
2023/06/29 05:53:50;;;;;;;35.28;20.95;;;18.70;99.90;;;;;;5006688;28;20026;-71
2023/06/29 05:56:16;;;;;;;35.58;21.83;;;18.70;99.90;;;;;;5024176;28;20088;-72
2023/06/29 05:58:41;;;;;;;39.35;22.40;;;18.80;99.90;;;;;;5025116;28;20034;-70
2023/06/29 06:01:07;;;;;;;39.25;21.90;;;18.80;99.90;;;;;;5028293;28;20030;-71
2023/06/29 06:03:33;;;;;;;42.88;21.98;;;18.80;99.90;;;;;;5027870;28;20022;-72
2023/06/29 06:05:58;;;;;;;37.97;21.70;;;18.80;99.90;;;;;;5027910;28;20038;-72
2023/06/29 06:08:24;;;;;;;47.42;22.58;;;18.90;99.90;;;;;;5028020;28;20093;-71
2023/06/29 06:10:50;;;;;;;36.70;22.23;;;18.90;99.90;;;;;;5027809;28;20071;-72
2023/06/29 06:13:16;;;;;;;43.83;23.08;;;19.00;99.90;;;;;;5031211;28;20025;-71
2023/06/29 06:15:41;;;;;;;38.58;22.15;;;19.00;99.90;;;;;;5044892;28;20071;-71
2023/06/29 06:18:07;;;;;;;39.72;22.73;;;19.00;99.90;;;;;;5041783;28;20090;-75
2023/06/29 06:20:33;;;;;;;37.75;21.33;;;19.10;99.90;;;;;;5024813;28;20034;-73
2023/06/29 06:22:58;;;;;;;38.92;22.73;;;19.10;99.90;;;;;;5034852;28;20036;-71
2023/06/29 06:25:24;;;;;;;41.00;21.60;;;19.20;99.90;;;;;;5042660;28;20037;-72
2023/06/29 06:27:49;;;;;;;37.38;21.27;;;19.10;99.90;;;;;;5045901;28;20059;-72
2023/06/29 06:30:15;;;;;;;44.55;21.77;;;19.20;99.90;;;;;;5045586;28;20121;-71
2023/06/29 06:32:41;;;;;;;37.92;20.77;;;19.20;99.90;;;;;;5046032;28;20124;-72
2023/06/29 06:35:09;;;;;;;37.58;21.35;;;19.20;99.90;;;;;;5028437;28;20026;-71
2023/06/29 06:37:38;;;;;;;40.70;22.05;;;19.20;99.90;;;;;;5046405;28;20022;-71
2023/06/29 06:40:07;;;;;;;41.28;20.92;;;19.20;99.90;;;;;;5045838;28;20042;-72
2023/06/29 06:42:36;;;;;;;36.92;19.83;;;19.20;99.90;;;;;;5046366;28;20052;-73
2023/06/29 06:45:06;;;;;;;39.30;19.30;;;19.20;99.90;;;;;;5029140;28;20033;-71
2023/06/29 06:47:32;;;;;;;43.00;21.70;;;19.20;99.90;;;;;;5046078;28;20082;-72
2023/06/29 06:49:59;;;;;;;38.22;21.15;;;19.30;99.90;;;;;;5046958;28;20041;-72
2023/06/29 06:52:24;;;;;;;31.23;19.70;;;19.30;99.90;;;;;;5028898;28;20022;-74
2023/06/29 06:54:51;;;;;;;40.28;20.75;;;19.40;99.90;;;;;;5046298;28;20031;-70
2023/06/29 06:57:17;;;;;;;35.00;20.63;;;19.40;99.90;;;;;;5028925;28;20029;-70
2023/06/29 06:59:42;;;;;;;35.30;20.75;;;19.40;99.90;;;;;;5046457;28;20036;-70
2023/06/29 07:02:08;;;;;;;38.67;21.65;;;19.50;99.90;;;;;;5046580;28;20375;-73
2023/06/29 07:04:34;;;;;;;43.50;22.13;;;19.40;99.90;;;;;;5046724;28;20038;-73
2023/06/29 07:06:59;;;;;;;32.03;20.80;;;19.40;99.90;;;;;;5045719;28;20026;-71
2023/06/29 07:09:25;;;;;;;38.45;21.70;;;19.50;99.90;;;;;;5033858;28;20029;-72
2023/06/29 07:11:50;;;;;;;39.85;20.27;;;19.40;99.90;;;;;;5045779;28;20071;-71
2023/06/29 07:14:16;;;;;;;41.20;21.50;;;19.40;99.90;;;;;;5041013;28;20083;-72
2023/06/29 07:16:42;;;;;;;38.97;20.95;;;19.50;99.90;;;;;;5039417;28;20026;-73
2023/06/29 07:19:12;;;;;;;42.10;22.00;;;19.50;99.90;;;;;;5045531;28;20041;-72
2023/06/29 07:21:37;;;;;;;36.05;20.95;;;19.50;99.90;;;;;;5045067;28;20480;-72
2023/06/29 07:24:03;;;;;;;40.13;21.58;;;19.60;99.90;;;;;;5046122;28;20029;-72
2023/06/29 07:26:29;;;;;;;35.10;21.10;;;19.60;99.90;;;;;;5045653;28;20510;-72
2023/06/29 07:28:54;;;;;;;41.97;22.08;;;19.70;99.90;;;;;;5045753;28;20030;-71
2023/06/29 07:31:27;;;;;;;39.00;22.50;;;19.80;99.90;;;;;;5027260;28;20041;-71
2023/06/29 07:33:54;;;;;;;36.70;22.25;;;19.90;99.90;;;;;;5036926;28;20053;-70
2023/06/29 07:36:24;;;;;;;40.90;22.42;;;19.90;99.90;;;;;;5044911;28;20032;-75
2023/06/29 07:38:50;;;;;;;42.92;21.90;;;20.00;99.90;;;;;;5032779;28;20056;-71
2023/06/29 07:41:17;;;;;;;44.25;21.80;;;20.10;99.90;;;;;;5045802;28;20030;-69
2023/06/29 07:43:48;;;;;;;39.75;22.27;;;20.20;99.90;;;;;;5034304;28;20115;-75
2023/06/29 07:46:13;;;;;;;40.75;22.10;;;20.30;99.90;;;;;;5045637;28;20034;-73
2023/06/29 07:48:39;;;;;;;40.97;21.90;;;20.30;99.90;;;;;;5027646;28;20029;-73
2023/06/29 07:51:05;;;;;;;42.72;22.63;;;20.40;99.90;;;;;;5045221;28;20104;-71
2023/06/29 07:53:31;;;;;;;41.03;22.52;;;20.40;99.90;;;;;;5045461;28;20029;-72
2023/06/29 07:55:58;;;;;;;37.13;21.27;;;20.60;99.90;;;;;;5045087;28;20018;-72
2023/06/29 07:58:23;;;;;;;41.90;21.80;;;20.60;99.90;;;;;;5045072;28;20037;-71
2023/06/29 08:00:49;;;;;;;35.10;20.45;;;20.70;99.90;;;;;;5045297;28;20033;-72
2023/06/29 08:03:14;;;;;;;36.78;20.38;;;20.70;99.90;;;;;;5043182;28;20033;-73
2023/06/29 08:05:40;;;;;;;38.05;20.10;;;20.80;99.90;;;;;;5026804;28;20033;-72
2023/06/29 08:08:05;;;;;;;43.03;21.23;;;20.80;99.90;;;;;;5045108;28;20083;-72
2023/06/29 08:10:31;;;;;;;36.97;19.17;;;20.90;99.90;;;;;;5043453;28;20485;-71
2023/06/29 08:12:57;;;;;;;38.50;19.30;;;21.00;99.90;;;;;;5039689;28;20029;-72
2023/06/29 08:15:23;;;;;;;31.88;19.75;;;21.00;99.90;;;;;;5041826;28;20089;-72
2023/06/29 08:17:48;;;;;;;36.17;19.92;;;21.10;99.90;;;;;;5043042;28;20036;-71
2023/06/29 08:20:14;;;;;;;37.80;20.55;;;21.20;99.90;;;;;;5030431;28;20033;-71
2023/06/29 08:22:41;;;;;;;40.53;20.08;;;21.20;99.90;;;;;;5040672;28;20037;-72
2023/06/29 08:25:07;;;;;;;39.22;19.77;;;21.30;99.90;;;;;;5038262;28;20042;-72
2023/06/29 08:27:33;;;;;;;37.33;19.33;;;21.30;99.90;;;;;;5031878;28;20030;-71
2023/06/29 08:29:58;;;;;;;37.60;18.83;;;21.30;99.90;;;;;;5028834;28;20027;-76
2023/06/29 08:32:24;;;;;;;36.75;18.70;;;21.30;99.90;;;;;;5009661;28;20060;-71
2023/06/29 08:34:50;;;;;;;35.42;19.25;;;21.30;99.90;;;;;;5034129;28;20036;-71
2023/06/29 08:37:15;;;;;;;29.70;18.13;;;21.30;99.90;;;;;;5027248;28;20075;-72
2023/06/29 08:39:41;;;;;;;37.95;18.55;;;21.20;99.90;;;;;;5043505;28;20049;-72
2023/06/29 08:42:07;;;;;;;34.15;19.55;;;21.10;99.90;;;;;;5044625;28;20025;-72
2023/06/29 08:44:33;;;;;;;32.53;18.90;;;21.10;99.90;;;;;;5044676;28;20379;-73
2023/06/29 08:47:01;;;;;;;37.72;21.25;;;21.00;99.90;;;;;;5043609;28;20101;-72
2023/06/29 08:49:27;;;;;;;32.45;18.65;;;20.90;99.90;;;;;;5040821;28;20053;-71
2023/06/29 08:51:59;;;;;;;32.22;19.40;;;20.90;99.90;;;;;;5040913;28;20108;-74
2023/06/29 08:54:31;;;;;;;30.10;18.95;;;20.90;99.90;;;;;;5026692;28;20052;-70
2023/06/29 08:56:58;;;;;;;36.58;19.60;;;20.90;99.90;;;;;;5042028;28;20026;-71
2023/06/29 08:59:26;;;;;;;34.80;19.13;;;20.80;99.90;;;;;;5044394;28;20037;-70
2023/06/29 09:01:52;;;;;;;37.85;20.52;;;20.80;99.90;;;;;;5030005;28;20026;-72
2023/06/29 09:04:17;;;;;;;32.42;18.70;;;20.80;99.90;;;;;;5044158;28;20033;-72
2023/06/29 09:06:43;;;;;;;35.65;19.92;;;20.80;99.90;;;;;;5043890;28;20085;-76
2023/06/29 09:09:09;;;;;;;40.03;20.98;;;20.80;99.90;;;;;;5044437;28;20025;-73
2023/06/29 09:11:36;;;;;;;44.85;22.90;;;20.80;99.90;;;;;;5043438;28;20025;-71
2023/06/29 09:14:06;;;;;;;36.35;20.30;;;20.80;99.90;;;;;;5026726;28;20032;-71
2023/06/29 09:16:34;;;;;;;36.25;20.27;;;20.80;99.90;;;;;;5026806;28;20034;-71
2023/06/29 09:19:00;;;;;;;39.28;23.48;;;20.80;99.90;;;;;;5024397;28;20030;-71
2023/06/29 09:21:28;;;;;;;39.22;21.08;;;20.80;99.90;;;;;;5039231;28;20045;-70
2023/06/29 09:24:00;;;;;;;36.97;21.70;;;20.70;99.90;;;;;;5026228;28;20434;-72
2023/06/29 09:26:29;;;;;;;38.10;21.27;;;20.70;99.90;;;;;;5044018;28;20030;-70
2023/06/29 09:29:03;;;;;;;37.55;22.20;;;20.70;99.90;;;;;;5018440;28;20040;-70
2023/06/29 09:31:32;;;;;;;40.80;21.52;;;20.70;99.90;;;;;;5032973;28;20033;-70
2023/06/29 09:34:21;;;;;;;36.92;21.13;;;20.60;99.90;;;;;;5039435;28;20040;-72
2023/06/29 09:36:50;;;;;;;40.97;20.98;;;20.60;99.90;;;;;;5038845;28;20479;-70
2023/06/29 09:39:16;;;;;;;34.88;21.10;;;20.70;99.90;;;;;;5037661;28;20042;-71
2023/06/29 09:41:46;;;;;;;37.63;20.95;;;20.70;99.90;;;;;;5040440;28;20056;-72
2023/06/29 09:44:14;;;;;;;44.03;24.10;;;20.70;99.90;;;;;;5039997;28;20056;-72
2023/06/29 09:46:41;;;;;;;43.50;24.52;;;20.80;99.90;;;;;;5028740;28;20482;-72
2023/06/29 09:49:10;;;;;;;44.30;25.13;;;20.80;99.90;;;;;;5033116;28;20037;-72
2023/06/29 09:51:35;;;;;;;44.30;24.52;;;20.80;99.90;;;;;;5036481;28;20030;-71
2023/06/29 09:54:02;;;;;;;34.63;24.08;;;20.90;99.90;;;;;;5045792;28;20124;-71
2023/06/29 09:56:29;;;;;;;44.85;24.65;;;20.90;99.90;;;;;;5043955;28;20072;-73
2023/06/29 09:58:56;;;;;;;40.22;24.60;;;20.90;99.90;;;;;;5040681;28;20029;-71
2023/06/29 10:01:26;;;;;;;37.13;23.50;;;21.00;99.90;;;;;;5043006;28;20029;-72
2023/06/29 10:03:51;;;;;;;45.45;22.77;;;21.00;99.90;;;;;;5035429;28;20033;-72
2023/06/29 10:06:21;;;;;;;40.35;23.75;;;21.00;99.90;;;;;;5029540;28;20192;-72
2023/06/29 10:08:53;;;;;;;41.63;23.05;;;21.00;99.90;;;;;;5047323;28;20029;-72
2023/06/29 10:11:21;;;;;;;45.05;22.40;;;21.10;99.90;;;;;;5027837;28;20025;-71
2023/06/29 10:13:49;;;;;;;38.42;21.02;;;21.10;99.90;;;;;;5027227;28;20026;-71
2023/06/29 10:16:19;;;;;;;37.55;19.65;;;21.10;99.90;;;;;;5029341;28;20060;-71
2023/06/29 10:18:47;;;;;;;40.40;19.70;;;21.10;99.90;;;;;;5045216;28;20036;-72
2023/06/29 10:21:13;;;;;;;36.53;20.45;;;21.20;99.90;;;;;;5044518;28;20029;-71
2023/06/29 10:23:42;;;;;;;33.13;18.40;;;21.20;99.90;;;;;;5046425;28;20501;-70
2023/06/29 10:26:09;;;;;;;31.10;17.42;;;21.30;99.90;;;;;;5026695;28;20037;-72
2023/06/29 10:28:35;;;;;;;35.67;19.30;;;21.30;99.90;;;;;;5034681;28;20050;-72
2023/06/29 10:31:01;;;;;;;34.35;19.42;;;21.30;99.90;;;;;;5040774;28;20034;-72
2023/06/29 10:33:27;;;;;;;39.88;19.42;;;21.40;99.90;;;;;;5044793;28;20036;-73
2023/06/29 10:36:03;;;;;;;37.65;20.80;;;21.40;99.90;;;;;;5046823;28;20406;-71
2023/06/29 10:38:32;;;;;;;34.58;20.67;;;21.50;99.90;;;;;;5046048;28;20371;-73
2023/06/29 10:40:58;;;;;;;38.92;21.45;;;21.50;99.90;;;;;;5038646;28;20448;-72
2023/06/29 10:43:28;;;;;;;39.75;23.45;;;21.50;99.90;;;;;;5045430;28;20029;-72
2023/06/29 10:45:53;;;;;;;39.22;22.42;;;21.60;99.90;;;;;;5044484;28;20045;-73
2023/06/29 10:48:20;;;;;;;41.70;22.85;;;21.60;99.90;;;;;;5046385;28;20037;-70
2023/06/29 10:50:47;;;;;;;37.63;23.05;;;21.60;99.90;;;;;;5030836;28;20026;-72
2023/06/29 10:53:15;;;;;;;41.92;22.95;;;21.70;99.90;;;;;;5045373;28;20026;-71
2023/06/29 10:55:44;;;;;;;39.30;21.63;;;21.70;99.90;;;;;;5044335;28;20021;-71
2023/06/29 10:58:31;;;;;;;36.65;22.38;;;21.70;99.90;;;;;;5038934;28;20036;-73
2023/06/29 11:00:57;;;;;;;39.72;22.63;;;21.70;99.90;;;;;;5041087;28;20026;-70
2023/06/29 11:03:23;;;;;;;43.72;21.85;;;21.80;99.90;;;;;;5042217;28;20451;-72
2023/06/29 11:05:51;;;;;;;36.33;19.45;;;21.80;99.90;;;;;;5038204;28;20041;-72
2023/06/29 11:08:19;;;;;;;39.50;21.88;;;21.90;99.90;;;;;;5044301;28;20112;-71
2023/06/29 11:10:44;;;;;;;37.53;21.30;;;21.90;99.90;;;;;;5045779;28;20028;-71
2023/06/29 11:13:11;;;;;;;36.05;21.00;;;22.00;99.90;;;;;;5041514;28;20022;-75
2023/06/29 11:15:40;;;;;;;37.33;21.60;;;22.00;99.90;;;;;;5034325;28;20248;-73
2023/06/29 11:18:08;;;;;;;34.25;20.08;;;22.10;99.90;;;;;;5044513;28;20037;-72
2023/06/29 11:20:37;;;;;;;42.72;22.38;;;22.10;99.90;;;;;;5044057;28;20536;-74
2023/06/29 11:23:03;;;;;;;34.25;21.23;;;22.20;99.90;;;;;;5032135;28;20034;-73
2023/06/29 11:25:29;;;;;;;38.92;21.48;;;22.20;99.90;;;;;;5035191;28;20098;-73
2023/06/29 11:27:56;;;;;;;40.10;20.27;;;22.20;99.90;;;;;;5025684;28;20098;-73
2023/06/29 11:30:22;;;;;;;37.35;20.83;;;22.30;99.90;;;;;;5032653;28;20069;-73
2023/06/29 11:32:51;;;;;;;39.92;21.40;;;22.30;99.90;;;;;;5031628;28;20034;-73
2023/06/29 11:35:22;;;;;;;39.00;20.35;;;22.30;99.90;;;;;;5037194;28;20045;-74
2023/06/29 11:37:49;;;;;;;36.83;21.90;;;22.40;99.90;;;;;;5026695;28;20083;-71
2023/06/29 11:40:17;;;;;;;38.35;21.45;;;22.40;99.90;;;;;;5039377;28;20120;-72
2023/06/29 11:42:43;;;;;;;46.20;21.58;;;22.40;99.90;;;;;;5045357;28;20112;-72
2023/06/29 11:45:10;;;;;;;40.67;22.40;;;22.40;99.90;;;;;;5040750;28;20048;-75
2023/06/29 11:47:36;;;;;;;39.70;22.27;;;22.40;99.90;;;;;;5019340;28;20041;-72
2023/06/29 11:50:04;;;;;;;44.00;23.25;;;22.40;99.90;;;;;;5027890;28;20036;-71
2023/06/29 11:52:32;;;;;;;41.42;23.48;;;22.40;99.90;;;;;;5040942;28;20414;-70
2023/06/29 11:55:02;;;;;;;44.00;23.15;;;22.40;99.90;;;;;;5034339;28;20374;-70
2023/06/29 11:57:36;;;;;;;43.88;23.17;;;22.40;99.90;;;;;;5045025;28;20036;-72
2023/06/29 12:00:08;;;;;;;48.40;23.17;;;22.40;99.90;;;;;;5045843;28;20134;-73
2023/06/29 12:02:36;;;;;;;43.58;23.23;;;22.40;99.90;;;;;;5045855;28;20036;-71
2023/06/29 12:05:04;;;;;;;40.92;23.50;;;22.40;99.90;;;;;;5036360;28;20041;-70
2023/06/29 12:07:39;;;;;;;41.10;23.73;;;22.40;99.90;;;;;;5025476;28;20034;-72
2023/06/29 12:10:10;;;;;;;46.75;24.15;;;22.30;99.90;;;;;;5025114;28;20033;-73
2023/06/29 12:12:36;;;;;;;44.63;23.48;;;22.30;99.90;;;;;;5036146;28;20038;-73
2023/06/29 12:15:23;;;;;;;41.05;23.10;;;22.30;99.90;;;;;;5037295;28;20571;-71
2023/06/29 12:17:50;;;;;;;47.38;25.02;;;22.40;99.90;;;;;;5024609;28;20034;-70
2023/06/29 12:20:24;;;;;;;44.88;24.08;;;22.40;99.90;;;;;;5025092;28;20049;-72
2023/06/29 12:22:53;;;;;;;40.90;23.37;;;22.40;99.90;;;;;;5044975;28;20018;-71
2023/06/29 12:25:19;;;;;;;43.28;23.73;;;22.40;99.90;;;;;;5042001;28;20296;-71
2023/06/29 12:27:47;;;;;;;41.33;23.38;;;22.40;99.90;;;;;;5044441;28;20028;-72